메인 페이지
METAR-TAF:

METAR-TAF

공항 :

암만, 요르단

위도: 31-59N, 경도: 035-59E, 고도: 767m

현재 날씨관측

예보는 1 시간 1분 전, 13:00시(UTC)에 발표되었습니다.
무풍
온도 33°C
습도 23%
기압 1015 hPa
시정: 7000m

METAR: OJAM 051300Z 00000KT 7000 NSC 33/09 Q1015 NOSIG

시각: 17:01 (14:01 UTC)

예보

예보는 3 시간 55분 전, 10:06시(UTC)에 발표되었습니다.
예보 대상 시간: 05일 12시부터 06일 18시까지 (UTC)
북북서8kt
시정: 5000m
연무
일시적
05일 12시부터 05일 24시까지 (UTC)
북동10kt

TAF: OJAM 051006Z 0512/0618 33008KT 5000 HZ NSC TEMPO 0512/0524 04010KT

4,000개 이상의 공항 관측 자료 및 예보 (METAR 및 TAF 보고).

지도상에서 검색 가능한 기상관측소가 노란 점과 빨간 점으로 표시되어 있습니다.

기상관측소 명을 보려면 표시 위로 마우스를 이동하세요.

날씨 관측과 예보를 보려면 클릭하세요.

지도 변경 : 확대하려면 엑스 표시가 있는 녹색 버튼, 축소하려면 빼기 표시가 있는 녹색 버튼, 다음 페이지의 지도를 보려면 녹색 화살표를 클릭하세요.


METAR-TAF: